Cummingsville, Minnesota
Current Conditions -  °F | °C
As of 11:15 AM on Monday 22 Dec 2014 (Local Time) from KFKA Reporting Station
Haze Haze  
Wind Chill: 25°   Ceiling: 800
Heat Index: 34°   Visibility: 3mi
Dew Point: 32°   Wind: 14mph
Humidity: 92%   Direction: 130°SE
Pressure: 29.66"   Gusts: NA
Location:  43.8233°N, 92.1103°W
Report Text: KFKA 221715Z AUTO 13012KT 3SM BR OVC008 01/00 A2966 RMK AO2 T00110000
Loading
Personal Weather Stations






























Interactive Weather Map New forecast layout! Learn more

10-Day Weather Forecast

Advertisements
Track Severe Weather on mobile